sensor_id;sensor_type;location;lat;lon;timestamp;P1;durP1;ratioP1;P2;durP2;ratioP2
59846;SDS011;45728;48.788;2.302;2023-04-15T00:01:37;12.98;;;11.43;;
59846;SDS011;45728;48.788;2.302;2023-04-15T00:04:04;12.43;;;11.05;;
59846;SDS011;45728;48.788;2.302;2023-04-15T00:06:30;13.15;;;11.75;;
59846;SDS011;45728;48.788;2.302;2023-04-15T00:08:56;16.92;;;11.85;;
59846;SDS011;45728;48.788;2.302;2023-04-15T00:11:22;14.57;;;11.20;;
59846;SDS011;45728;48.788;2.302;2023-04-15T00:13:48;14.00;;;11.45;;
59846;SDS011;45728;48.788;2.302;2023-04-15T00:16:14;13.35;;;11.88;;
59846;SDS011;45728;48.788;2.302;2023-04-15T00:18:41;14.20;;;12.05;;
59846;SDS011;45728;48.788;2.302;2023-04-15T00:21:07;13.35;;;11.95;;
59846;SDS011;45728;48.788;2.302;2023-04-15T00:23:34;16.60;;;12.68;;
59846;SDS011;45728;48.788;2.302;2023-04-15T00:26:01;16.15;;;13.57;;
59846;SDS011;45728;48.788;2.302;2023-04-15T00:28:27;13.73;;;12.40;;
59846;SDS011;45728;48.788;2.302;2023-04-15T00:30:53;14.90;;;13.40;;
59846;SDS011;45728;48.788;2.302;2023-04-15T00:33:19;13.75;;;11.82;;
59846;SDS011;45728;48.788;2.302;2023-04-15T00:35:46;14.93;;;12.68;;
59846;SDS011;45728;48.788;2.302;2023-04-15T00:38:12;13.73;;;12.27;;
59846;SDS011;45728;48.788;2.302;2023-04-15T00:40:38;13.95;;;12.45;;
59846;SDS011;45728;48.788;2.302;2023-04-15T00:43:04;14.45;;;12.93;;
59846;SDS011;45728;48.788;2.302;2023-04-15T00:45:31;15.90;;;11.77;;
59846;SDS011;45728;48.788;2.302;2023-04-15T00:47:57;13.45;;;11.85;;
59846;SDS011;45728;48.788;2.302;2023-04-15T00:50:24;13.73;;;12.32;;
59846;SDS011;45728;48.788;2.302;2023-04-15T00:52:50;13.88;;;12.23;;
59846;SDS011;45728;48.788;2.302;2023-04-15T00:55:16;15.02;;;12.43;;
59846;SDS011;45728;48.788;2.302;2023-04-15T00:57:42;14.85;;;12.25;;
59846;SDS011;45728;48.788;2.302;2023-04-15T01:00:09;13.68;;;12.10;;
59846;SDS011;45728;48.788;2.302;2023-04-15T01:02:36;15.60;;;12.35;;
59846;SDS011;45728;48.788;2.302;2023-04-15T01:05:03;15.55;;;13.07;;
59846;SDS011;45728;48.788;2.302;2023-04-15T01:07:30;16.52;;;11.90;;
59846;SDS011;45728;48.788;2.302;2023-04-15T01:09:56;13.75;;;12.40;;
59846;SDS011;45728;48.788;2.302;2023-04-15T01:12:23;14.73;;;13.15;;
59846;SDS011;45728;48.788;2.302;2023-04-15T01:14:52;14.00;;;12.70;;
59846;SDS011;45728;48.788;2.302;2023-04-15T01:17:18;14.57;;;13.13;;
59846;SDS011;45728;48.788;2.302;2023-04-15T01:19:45;14.80;;;13.40;;
59846;SDS011;45728;48.788;2.302;2023-04-15T01:22:11;14.40;;;12.57;;
59846;SDS011;45728;48.788;2.302;2023-04-15T01:24:37;12.48;;;11.18;;
59846;SDS011;45728;48.788;2.302;2023-04-15T01:27:04;14.23;;;12.93;;
59846;SDS011;45728;48.788;2.302;2023-04-15T01:29:31;12.70;;;11.20;;
59846;SDS011;45728;48.788;2.302;2023-04-15T01:31:59;13.00;;;11.65;;
59846;SDS011;45728;48.788;2.302;2023-04-15T01:34:25;13.13;;;11.80;;
59846;SDS011;45728;48.788;2.302;2023-04-15T01:36:51;13.07;;;11.73;;
59846;SDS011;45728;48.788;2.302;2023-04-15T01:39:17;12.68;;;11.25;;
59846;SDS011;45728;48.788;2.302;2023-04-15T01:41:43;13.82;;;12.40;;
59846;SDS011;45728;48.788;2.302;2023-04-15T01:44:09;13.65;;;12.35;;
59846;SDS011;45728;48.788;2.302;2023-04-15T01:46:36;13.13;;;11.82;;
59846;SDS011;45728;48.788;2.302;2023-04-15T01:49:02;12.38;;;11.27;;
59846;SDS011;45728;48.788;2.302;2023-04-15T01:51:28;12.88;;;11.65;;
59846;SDS011;45728;48.788;2.302;2023-04-15T01:53:54;11.20;;;10.20;;
59846;SDS011;45728;48.788;2.302;2023-04-15T01:56:23;11.70;;;10.60;;
59846;SDS011;45728;48.788;2.302;2023-04-15T01:58:49;11.75;;;10.75;;
59846;SDS011;45728;48.788;2.302;2023-04-15T02:01:16;12.20;;;11.00;;
59846;SDS011;45728;48.788;2.302;2023-04-15T02:03:44;12.05;;;10.93;;
59846;SDS011;45728;48.788;2.302;2023-04-15T02:06:11;11.35;;;10.32;;
59846;SDS011;45728;48.788;2.302;2023-04-15T02:08:37;10.48;;;9.48;;
59846;SDS011;45728;48.788;2.302;2023-04-15T02:11:03;7.03;;;6.32;;
59846;SDS011;45728;48.788;2.302;2023-04-15T02:13:29;3.75;;;3.40;;
59846;SDS011;45728;48.788;2.302;2023-04-15T02:15:55;3.03;;;2.72;;
59846;SDS011;45728;48.788;2.302;2023-04-15T02:18:22;3.08;;;2.58;;
59846;SDS011;45728;48.788;2.302;2023-04-15T02:20:49;2.60;;;2.40;;
59846;SDS011;45728;48.788;2.302;2023-04-15T02:23:16;3.15;;;2.58;;
59846;SDS011;45728;48.788;2.302;2023-04-15T02:25:42;2.53;;;2.33;;
59846;SDS011;45728;48.788;2.302;2023-04-15T02:28:08;7.20;;;2.55;;
59846;SDS011;45728;48.788;2.302;2023-04-15T02:30:35;2.75;;;2.20;;
59846;SDS011;45728;48.788;2.302;2023-04-15T02:33:01;2.83;;;2.55;;
59846;SDS011;45728;48.788;2.302;2023-04-15T02:35:27;3.30;;;3.00;;
59846;SDS011;45728;48.788;2.302;2023-04-15T02:37:53;2.65;;;2.45;;
59846;SDS011;45728;48.788;2.302;2023-04-15T02:40:20;3.17;;;2.97;;
59846;SDS011;45728;48.788;2.302;2023-04-15T02:42:46;3.38;;;3.08;;
59846;SDS011;45728;48.788;2.302;2023-04-15T02:45:12;4.03;;;3.00;;
59846;SDS011;45728;48.788;2.302;2023-04-15T02:47:38;3.38;;;3.08;;
59846;SDS011;45728;48.788;2.302;2023-04-15T02:50:06;3.17;;;2.80;;
59846;SDS011;45728;48.788;2.302;2023-04-15T02:52:34;3.65;;;3.22;;
59846;SDS011;45728;48.788;2.302;2023-04-15T02:55:00;4.13;;;3.38;;
59846;SDS011;45728;48.788;2.302;2023-04-15T02:57:27;4.22;;;3.83;;
59846;SDS011;45728;48.788;2.302;2023-04-15T02:59:56;3.78;;;3.45;;
59846;SDS011;45728;48.788;2.302;2023-04-15T03:02:22;4.63;;;4.13;;
59846;SDS011;45728;48.788;2.302;2023-04-15T03:04:48;3.88;;;3.58;;
59846;SDS011;45728;48.788;2.302;2023-04-15T03:07:14;4.10;;;3.80;;
59846;SDS011;45728;48.788;2.302;2023-04-15T03:09:41;4.50;;;4.10;;
59846;SDS011;45728;48.788;2.302;2023-04-15T03:12:07;4.80;;;4.13;;
59846;SDS011;45728;48.788;2.302;2023-04-15T03:14:33;4.70;;;4.30;;
59846;SDS011;45728;48.788;2.302;2023-04-15T03:16:59;4.75;;;4.35;;
59846;SDS011;45728;48.788;2.302;2023-04-15T03:19:26;5.72;;;5.13;;
59846;SDS011;45728;48.788;2.302;2023-04-15T03:21:52;5.38;;;4.88;;
59846;SDS011;45728;48.788;2.302;2023-04-15T03:24:19;5.03;;;4.60;;
59846;SDS011;45728;48.788;2.302;2023-04-15T03:26:45;5.20;;;4.80;;
59846;SDS011;45728;48.788;2.302;2023-04-15T03:29:11;5.60;;;5.10;;
59846;SDS011;45728;48.788;2.302;2023-04-15T03:31:37;5.15;;;4.75;;
59846;SDS011;45728;48.788;2.302;2023-04-15T03:34:03;5.80;;;5.30;;
59846;SDS011;45728;48.788;2.302;2023-04-15T03:36:29;5.95;;;5.45;;
59846;SDS011;45728;48.788;2.302;2023-04-15T03:38:59;5.70;;;5.20;;
59846;SDS011;45728;48.788;2.302;2023-04-15T03:41:26;5.47;;;4.97;;
59846;SDS011;45728;48.788;2.302;2023-04-15T03:43:53;6.38;;;4.97;;
59846;SDS011;45728;48.788;2.302;2023-04-15T03:46:19;5.45;;;4.30;;
59846;SDS011;45728;48.788;2.302;2023-04-15T03:48:46;4.40;;;3.70;;
59846;SDS011;45728;48.788;2.302;2023-04-15T03:51:12;4.18;;;3.78;;
59846;SDS011;45728;48.788;2.302;2023-04-15T03:53:38;4.97;;;3.30;;
59846;SDS011;45728;48.788;2.302;2023-04-15T03:56:04;4.13;;;3.72;;
59846;SDS011;45728;48.788;2.302;2023-04-15T03:58:31;4.82;;;3.45;;
59846;SDS011;45728;48.788;2.302;2023-04-15T04:00:57;4.97;;;3.47;;
59846;SDS011;45728;48.788;2.302;2023-04-15T04:03:23;5.78;;;3.42;;
59846;SDS011;45728;48.788;2.302;2023-04-15T04:05:49;4.18;;;2.70;;
59846;SDS011;45728;48.788;2.302;2023-04-15T04:08:15;4.85;;;2.92;;
59846;SDS011;45728;48.788;2.302;2023-04-15T04:10:43;3.05;;;2.45;;
59846;SDS011;45728;48.788;2.302;2023-04-15T04:13:10;4.57;;;2.50;;
59846;SDS011;45728;48.788;2.302;2023-04-15T04:15:36;3.20;;;2.35;;
59846;SDS011;45728;48.788;2.302;2023-04-15T04:18:02;5.78;;;2.80;;
59846;SDS011;45728;48.788;2.302;2023-04-15T04:20:28;3.85;;;2.55;;
59846;SDS011;45728;48.788;2.302;2023-04-15T04:22:56;5.10;;;2.42;;
59846;SDS011;45728;48.788;2.302;2023-04-15T04:25:22;4.65;;;2.90;;
59846;SDS011;45728;48.788;2.302;2023-04-15T04:27:49;5.20;;;2.42;;
59846;SDS011;45728;48.788;2.302;2023-04-15T04:30:15;2.90;;;2.60;;
59846;SDS011;45728;48.788;2.302;2023-04-15T04:32:41;3.20;;;2.50;;
59846;SDS011;45728;48.788;2.302;2023-04-15T04:35:07;2.38;;;2.17;;
59846;SDS011;45728;48.788;2.302;2023-04-15T04:37:33;1.67;;;1.58;;
59846;SDS011;45728;48.788;2.302;2023-04-15T04:39:59;1.70;;;1.40;;
59846;SDS011;45728;48.788;2.302;2023-04-15T04:42:26;2.08;;;1.40;;
59846;SDS011;45728;48.788;2.302;2023-04-15T04:44:52;2.22;;;1.35;;
59846;SDS011;45728;48.788;2.302;2023-04-15T04:47:18;2.40;;;1.10;;
59846;SDS011;45728;48.788;2.302;2023-04-15T04:49:44;2.08;;;1.10;;
59846;SDS011;45728;48.788;2.302;2023-04-15T04:52:10;1.95;;;1.40;;
59846;SDS011;45728;48.788;2.302;2023-04-15T04:54:36;2.55;;;1.70;;
59846;SDS011;45728;48.788;2.302;2023-04-15T04:57:02;1.52;;;1.40;;
59846;SDS011;45728;48.788;2.302;2023-04-15T04:59:28;2.53;;;1.80;;
59846;SDS011;45728;48.788;2.302;2023-04-15T05:01:54;1.70;;;1.60;;
59846;SDS011;45728;48.788;2.302;2023-04-15T05:04:20;1.70;;;1.58;;
59846;SDS011;45728;48.788;2.302;2023-04-15T05:06:46;1.40;;;1.30;;
59846;SDS011;45728;48.788;2.302;2023-04-15T05:09:12;1.55;;;1.42;;
59846;SDS011;45728;48.788;2.302;2023-04-15T05:11:39;1.77;;;1.15;;
59846;SDS011;45728;48.788;2.302;2023-04-15T05:14:05;1.55;;;1.45;;
59846;SDS011;45728;48.788;2.302;2023-04-15T05:16:31;2.75;;;1.40;;
59846;SDS011;45728;48.788;2.302;2023-04-15T05:18:57;1.73;;;1.63;;
59846;SDS011;45728;48.788;2.302;2023-04-15T05:21:23;1.92;;;1.60;;
59846;SDS011;45728;48.788;2.302;2023-04-15T05:23:50;1.73;;;1.60;;
59846;SDS011;45728;48.788;2.302;2023-04-15T05:26:16;3.38;;;1.50;;
59846;SDS011;45728;48.788;2.302;2023-04-15T05:28:42;1.13;;;1.02;;
59846;SDS011;45728;48.788;2.302;2023-04-15T05:31:08;5.72;;;1.42;;
59846;SDS011;45728;48.788;2.302;2023-04-15T05:33:34;1.27;;;1.17;;
59846;SDS011;45728;48.788;2.302;2023-04-15T05:36:01;1.85;;;1.00;;
59846;SDS011;45728;48.788;2.302;2023-04-15T05:38:27;1.05;;;1.00;;
59846;SDS011;45728;48.788;2.302;2023-04-15T05:40:53;1.20;;;1.10;;
59846;SDS011;45728;48.788;2.302;2023-04-15T05:43:19;0.80;;;0.80;;
59846;SDS011;45728;48.788;2.302;2023-04-15T05:45:46;0.90;;;0.90;;
59846;SDS011;45728;48.788;2.302;2023-04-15T05:48:12;0.93;;;0.90;;
59846;SDS011;45728;48.788;2.302;2023-04-15T05:50:39;1.52;;;1.00;;
59846;SDS011;45728;48.788;2.302;2023-04-15T05:53:06;1.20;;;0.93;;
59846;SDS011;45728;48.788;2.302;2023-04-15T05:55:33;1.10;;;1.00;;
59846;SDS011;45728;48.788;2.302;2023-04-15T05:57:59;1.00;;;1.00;;
59846;SDS011;45728;48.788;2.302;2023-04-15T06:00:25;1.17;;;1.08;;
59846;SDS011;45728;48.788;2.302;2023-04-15T06:02:51;1.00;;;0.90;;
59846;SDS011;45728;48.788;2.302;2023-04-15T06:05:18;1.20;;;1.10;;
59846;SDS011;45728;48.788;2.302;2023-04-15T06:07:44;2.08;;;1.10;;
59846;SDS011;45728;48.788;2.302;2023-04-15T06:10:10;1.10;;;1.00;;
59846;SDS011;45728;48.788;2.302;2023-04-15T06:12:36;1.20;;;1.10;;
59846;SDS011;45728;48.788;2.302;2023-04-15T06:15:03;1.25;;;1.10;;
59846;SDS011;45728;48.788;2.302;2023-04-15T06:17:31;1.50;;;1.30;;
59846;SDS011;45728;48.788;2.302;2023-04-15T06:19:57;1.23;;;1.13;;
59846;SDS011;45728;48.788;2.302;2023-04-15T06:22:23;1.40;;;1.30;;
59846;SDS011;45728;48.788;2.302;2023-04-15T06:24:49;1.27;;;1.17;;
59846;SDS011;45728;48.788;2.302;2023-04-15T06:27:16;2.00;;;1.40;;
59846;SDS011;45728;48.788;2.302;2023-04-15T06:29:42;1.23;;;1.13;;
59846;SDS011;45728;48.788;2.302;2023-04-15T06:32:08;0.90;;;0.90;;
59846;SDS011;45728;48.788;2.302;2023-04-15T06:34:35;1.80;;;1.10;;
59846;SDS011;45728;48.788;2.302;2023-04-15T06:37:01;2.08;;;1.20;;
59846;SDS011;45728;48.788;2.302;2023-04-15T06:39:27;1.13;;;1.02;;
59846;SDS011;45728;48.788;2.302;2023-04-15T06:41:53;2.00;;;1.25;;
59846;SDS011;45728;48.788;2.302;2023-04-15T06:44:19;1.58;;;1.42;;
59846;SDS011;45728;48.788;2.302;2023-04-15T06:46:45;1.35;;;1.25;;
59846;SDS011;45728;48.788;2.302;2023-04-15T06:49:11;1.60;;;1.50;;
59846;SDS011;45728;48.788;2.302;2023-04-15T06:51:37;1.60;;;1.48;;
59846;SDS011;45728;48.788;2.302;2023-04-15T06:54:03;1.65;;;1.55;;
59846;SDS011;45728;48.788;2.302;2023-04-15T06:56:31;1.80;;;1.67;;
59846;SDS011;45728;48.788;2.302;2023-04-15T06:58:57;2.70;;;1.65;;
59846;SDS011;45728;48.788;2.302;2023-04-15T07:01:23;1.83;;;1.40;;
59846;SDS011;45728;48.788;2.302;2023-04-15T07:03:49;1.75;;;1.40;;
59846;SDS011;45728;48.788;2.302;2023-04-15T07:06:16;1.40;;;1.30;;
59846;SDS011;45728;48.788;2.302;2023-04-15T07:08:42;1.70;;;1.60;;
59846;SDS011;45728;48.788;2.302;2023-04-15T07:11:08;1.90;;;1.73;;
59846;SDS011;45728;48.788;2.302;2023-04-15T07:13:34;2.13;;;1.60;;
59846;SDS011;45728;48.788;2.302;2023-04-15T07:16:00;2.65;;;1.80;;
59846;SDS011;45728;48.788;2.302;2023-04-15T07:18:26;1.77;;;1.67;;
59846;SDS011;45728;48.788;2.302;2023-04-15T07:20:52;2.05;;;1.92;;
59846;SDS011;45728;48.788;2.302;2023-04-15T07:23:18;1.65;;;1.55;;
59846;SDS011;45728;48.788;2.302;2023-04-15T07:25:45;2.30;;;2.10;;
59846;SDS011;45728;48.788;2.302;2023-04-15T07:28:12;2.45;;;2.13;;
59846;SDS011;45728;48.788;2.302;2023-04-15T07:30:38;2.30;;;2.10;;
59846;SDS011;45728;48.788;2.302;2023-04-15T07:33:04;2.58;;;2.00;;
59846;SDS011;45728;48.788;2.302;2023-04-15T07:35:30;2.42;;;2.05;;
59846;SDS011;45728;48.788;2.302;2023-04-15T07:37:56;2.25;;;1.70;;
59846;SDS011;45728;48.788;2.302;2023-04-15T07:40:22;1.90;;;1.52;;
59846;SDS011;45728;48.788;2.302;2023-04-15T07:42:48;1.67;;;1.50;;
59846;SDS011;45728;48.788;2.302;2023-04-15T07:45:14;1.70;;;1.60;;
59846;SDS011;45728;48.788;2.302;2023-04-15T07:47:40;2.95;;;1.50;;
59846;SDS011;45728;48.788;2.302;2023-04-15T07:50:07;2.80;;;1.80;;
59846;SDS011;45728;48.788;2.302;2023-04-15T07:52:35;1.95;;;1.70;;
59846;SDS011;45728;48.788;2.302;2023-04-15T07:55:04;2.20;;;2.00;;
59846;SDS011;45728;48.788;2.302;2023-04-15T07:57:36;2.08;;;1.88;;
59846;SDS011;45728;48.788;2.302;2023-04-15T08:00:03;2.53;;;1.90;;
59846;SDS011;45728;48.788;2.302;2023-04-15T08:02:30;2.97;;;1.88;;
59846;SDS011;45728;48.788;2.302;2023-04-15T08:04:56;3.78;;;2.47;;
59846;SDS011;45728;48.788;2.302;2023-04-15T08:07:23;2.90;;;2.50;;
59846;SDS011;45728;48.788;2.302;2023-04-15T08:09:49;2.83;;;2.63;;
59846;SDS011;45728;48.788;2.302;2023-04-15T08:12:16;3.63;;;2.70;;
59846;SDS011;45728;48.788;2.302;2023-04-15T08:14:42;3.78;;;2.40;;
59846;SDS011;45728;48.788;2.302;2023-04-15T08:17:08;2.72;;;2.53;;
59846;SDS011;45728;48.788;2.302;2023-04-15T08:19:34;2.83;;;2.40;;
59846;SDS011;45728;48.788;2.302;2023-04-15T08:22:00;4.03;;;3.33;;
59846;SDS011;45728;48.788;2.302;2023-04-15T08:24:26;3.67;;;2.58;;
59846;SDS011;45728;48.788;2.302;2023-04-15T08:26:53;3.60;;;2.50;;
59846;SDS011;45728;48.788;2.302;2023-04-15T08:29:19;5.38;;;2.63;;
59846;SDS011;45728;48.788;2.302;2023-04-15T08:31:45;2.42;;;2.20;;
59846;SDS011;45728;48.788;2.302;2023-04-15T08:34:12;2.83;;;2.17;;
59846;SDS011;45728;48.788;2.302;2023-04-15T08:36:38;2.80;;;1.95;;
59846;SDS011;45728;48.788;2.302;2023-04-15T08:39:04;2.25;;;2.03;;
59846;SDS011;45728;48.788;2.302;2023-04-15T08:41:39;2.20;;;2.00;;
59846;SDS011;45728;48.788;2.302;2023-04-15T08:44:17;2.53;;;2.10;;
59846;SDS011;45728;48.788;2.302;2023-04-15T08:46:44;2.40;;;2.20;;
59846;SDS011;45728;48.788;2.302;2023-04-15T08:49:11;3.33;;;2.53;;
59846;SDS011;45728;48.788;2.302;2023-04-15T08:51:38;2.50;;;2.30;;
59846;SDS011;45728;48.788;2.302;2023-04-15T08:54:06;2.70;;;2.50;;
59846;SDS011;45728;48.788;2.302;2023-04-15T08:56:33;2.85;;;2.65;;
59846;SDS011;45728;48.788;2.302;2023-04-15T08:59:01;3.30;;;3.03;;
59846;SDS011;45728;48.788;2.302;2023-04-15T09:01:28;3.20;;;2.90;;
59846;SDS011;45728;48.788;2.302;2023-04-15T09:03:55;2.90;;;2.60;;
59846;SDS011;45728;48.788;2.302;2023-04-15T09:06:22;3.17;;;2.90;;
59846;SDS011;45728;48.788;2.302;2023-04-15T09:08:49;2.50;;;2.05;;
59846;SDS011;45728;48.788;2.302;2023-04-15T09:11:16;2.10;;;1.60;;
59846;SDS011;45728;48.788;2.302;2023-04-15T09:13:44;1.60;;;1.50;;
59846;SDS011;45728;48.788;2.302;2023-04-15T09:16:10;1.73;;;1.33;;
59846;SDS011;45728;48.788;2.302;2023-04-15T09:18:38;2.25;;;1.40;;
59846;SDS011;45728;48.788;2.302;2023-04-15T09:21:04;2.15;;;1.33;;
59846;SDS011;45728;48.788;2.302;2023-04-15T09:23:33;2.35;;;1.70;;
59846;SDS011;45728;48.788;2.302;2023-04-15T09:26:00;2.65;;;1.55;;
59846;SDS011;45728;48.788;2.302;2023-04-15T09:28:27;1.50;;;1.30;;
59846;SDS011;45728;48.788;2.302;2023-04-15T09:30:54;1.30;;;1.20;;
59846;SDS011;45728;48.788;2.302;2023-04-15T09:33:25;1.50;;;1.20;;
59846;SDS011;45728;48.788;2.302;2023-04-15T09:36:00;1.80;;;1.50;;
59846;SDS011;45728;48.788;2.302;2023-04-15T09:38:26;1.45;;;1.35;;
59846;SDS011;45728;48.788;2.302;2023-04-15T09:40:53;3.65;;;1.90;;
59846;SDS011;45728;48.788;2.302;2023-04-15T09:43:19;2.22;;;1.83;;
59846;SDS011;45728;48.788;2.302;2023-04-15T09:45:46;2.15;;;1.60;;
59846;SDS011;45728;48.788;2.302;2023-04-15T09:48:21;1.77;;;1.45;;
59846;SDS011;45728;48.788;2.302;2023-04-15T09:50:51;1.92;;;1.38;;
59846;SDS011;45728;48.788;2.302;2023-04-15T09:53:19;3.22;;;1.63;;
59846;SDS011;45728;48.788;2.302;2023-04-15T09:55:56;1.63;;;1.50;;
59846;SDS011;45728;48.788;2.302;2023-04-15T09:58:24;1.95;;;1.52;;
59846;SDS011;45728;48.788;2.302;2023-04-15T10:00:52;2.17;;;1.58;;
59846;SDS011;45728;48.788;2.302;2023-04-15T10:03:20;1.83;;;1.20;;
59846;SDS011;45728;48.788;2.302;2023-04-15T10:05:49;2.03;;;1.40;;
59846;SDS011;45728;48.788;2.302;2023-04-15T10:08:16;2.70;;;1.42;;
59846;SDS011;45728;48.788;2.302;2023-04-15T10:10:44;1.95;;;1.60;;
59846;SDS011;45728;48.788;2.302;2023-04-15T10:13:13;1.42;;;1.33;;
59846;SDS011;45728;48.788;2.302;2023-04-15T10:15:42;2.17;;;1.55;;
59846;SDS011;45728;48.788;2.302;2023-04-15T10:18:11;5.30;;;1.50;;
59846;SDS011;45728;48.788;2.302;2023-04-15T10:20:41;2.10;;;1.55;;
59846;SDS011;45728;48.788;2.302;2023-04-15T10:23:08;1.70;;;1.30;;
59846;SDS011;45728;48.788;2.302;2023-04-15T10:25:34;2.08;;;1.42;;
59846;SDS011;45728;48.788;2.302;2023-04-15T10:28:02;1.58;;;1.30;;
59846;SDS011;45728;48.788;2.302;2023-04-15T10:30:29;1.70;;;1.60;;
59846;SDS011;45728;48.788;2.302;2023-04-15T10:32:57;1.30;;;1.20;;
59846;SDS011;45728;48.788;2.302;2023-04-15T10:35:24;1.50;;;1.38;;
59846;SDS011;45728;48.788;2.302;2023-04-15T10:37:50;1.60;;;1.50;;
59846;SDS011;45728;48.788;2.302;2023-04-15T10:42:53;3.65;;;1.45;;
59846;SDS011;45728;48.788;2.302;2023-04-15T10:45:21;1.80;;;1.58;;
59846;SDS011;45728;48.788;2.302;2023-04-15T10:47:53;1.90;;;1.63;;
59846;SDS011;45728;48.788;2.302;2023-04-15T10:50:21;1.38;;;1.27;;
59846;SDS011;45728;48.788;2.302;2023-04-15T10:52:49;1.48;;;1.33;;
59846;SDS011;45728;48.788;2.302;2023-04-15T10:55:23;1.40;;;1.30;;
59846;SDS011;45728;48.788;2.302;2023-04-15T10:57:54;1.90;;;1.80;;
59846;SDS011;45728;48.788;2.302;2023-04-15T11:00:27;1.70;;;1.58;;
59846;SDS011;45728;48.788;2.302;2023-04-15T11:05:22;1.50;;;1.25;;
59846;SDS011;45728;48.788;2.302;2023-04-15T11:08:13;1.52;;;1.42;;
59846;SDS011;45728;48.788;2.302;2023-04-15T11:15:37;2.15;;;1.77;;
59846;SDS011;45728;48.788;2.302;2023-04-15T11:18:14;2.42;;;2.03;;
59846;SDS011;45728;48.788;2.302;2023-04-15T11:20:50;3.05;;;1.73;;
59846;SDS011;45728;48.788;2.302;2023-04-15T11:23:26;1.60;;;1.50;;
59846;SDS011;45728;48.788;2.302;2023-04-15T11:25:54;1.67;;;1.55;;
59846;SDS011;45728;48.788;2.302;2023-04-15T11:28:28;2.15;;;1.63;;
59846;SDS011;45728;48.788;2.302;2023-04-15T11:30:55;2.30;;;2.10;;
59846;SDS011;45728;48.788;2.302;2023-04-15T11:33:22;1.65;;;1.55;;
59846;SDS011;45728;48.788;2.302;2023-04-15T11:35:50;2.45;;;1.98;;
59846;SDS011;45728;48.788;2.302;2023-04-15T11:38:18;2.30;;;2.10;;
59846;SDS011;45728;48.788;2.302;2023-04-15T11:40:44;2.45;;;2.25;;
59846;SDS011;45728;48.788;2.302;2023-04-15T11:43:14;3.60;;;2.47;;
59846;SDS011;45728;48.788;2.302;2023-04-15T11:45:49;2.83;;;2.40;;
59846;SDS011;45728;48.788;2.302;2023-04-15T11:48:21;3.10;;;2.67;;
59846;SDS011;45728;48.788;2.302;2023-04-15T11:50:52;2.80;;;2.60;;
59846;SDS011;45728;48.788;2.302;2023-04-15T11:56:21;3.30;;;3.00;;
59846;SDS011;45728;48.788;2.302;2023-04-15T11:58:52;3.03;;;2.80;;
59846;SDS011;45728;48.788;2.302;2023-04-15T12:01:39;3.08;;;2.80;;
59846;SDS011;45728;48.788;2.302;2023-04-15T12:04:11;3.38;;;3.08;;
59846;SDS011;45728;48.788;2.302;2023-04-15T12:06:38;3.88;;;3.42;;
59846;SDS011;45728;48.788;2.302;2023-04-15T12:09:14;3.78;;;3.22;;
59846;SDS011;45728;48.788;2.302;2023-04-15T12:16:41;3.08;;;2.80;;
59846;SDS011;45728;48.788;2.302;2023-04-15T12:19:10;3.10;;;2.90;;
59846;SDS011;45728;48.788;2.302;2023-04-15T12:21:38;2.90;;;1.90;;
59846;SDS011;45728;48.788;2.302;2023-04-15T12:24:07;1.55;;;1.45;;
59846;SDS011;45728;48.788;2.302;2023-04-15T12:29:10;1.42;;;1.33;;
59846;SDS011;45728;48.788;2.302;2023-04-15T12:31:45;1.30;;;1.20;;
59846;SDS011;45728;48.788;2.302;2023-04-15T12:34:13;1.75;;;1.30;;
59846;SDS011;45728;48.788;2.302;2023-04-15T12:36:39;1.40;;;1.30;;
59846;SDS011;45728;48.788;2.302;2023-04-15T12:39:05;2.90;;;1.50;;
59846;SDS011;45728;48.788;2.302;2023-04-15T12:41:31;1.67;;;1.58;;
59846;SDS011;45728;48.788;2.302;2023-04-15T12:43:58;2.45;;;1.85;;
59846;SDS011;45728;48.788;2.302;2023-04-15T12:46:24;1.90;;;1.65;;
59846;SDS011;45728;48.788;2.302;2023-04-15T12:48:50;1.83;;;1.73;;
59846;SDS011;45728;48.788;2.302;2023-04-15T12:51:17;2.15;;;1.70;;
59846;SDS011;45728;48.788;2.302;2023-04-15T12:53:46;3.03;;;1.88;;
59846;SDS011;45728;48.788;2.302;2023-04-15T12:56:14;2.33;;;2.00;;
59846;SDS011;45728;48.788;2.302;2023-04-15T12:58:41;2.15;;;1.65;;
59846;SDS011;45728;48.788;2.302;2023-04-15T13:01:07;1.80;;;1.63;;
59846;SDS011;45728;48.788;2.302;2023-04-15T13:03:34;2.35;;;1.50;;
59846;SDS011;45728;48.788;2.302;2023-04-15T13:06:00;4.32;;;1.60;;
59846;SDS011;45728;48.788;2.302;2023-04-15T13:08:29;2.20;;;1.42;;
59846;SDS011;45728;48.788;2.302;2023-04-15T13:10:55;3.17;;;1.67;;
59846;SDS011;45728;48.788;2.302;2023-04-15T13:13:21;1.38;;;1.20;;
59846;SDS011;45728;48.788;2.302;2023-04-15T13:15:47;3.70;;;2.30;;
59846;SDS011;45728;48.788;2.302;2023-04-15T13:18:14;9.02;;;6.38;;
59846;SDS011;45728;48.788;2.302;2023-04-15T13:20:40;7.72;;;5.93;;
59846;SDS011;45728;48.788;2.302;2023-04-15T13:23:06;6.53;;;3.85;;
59846;SDS011;45728;48.788;2.302;2023-04-15T13:25:32;3.65;;;3.15;;
59846;SDS011;45728;48.788;2.302;2023-04-15T13:27:58;4.30;;;2.80;;
59846;SDS011;45728;48.788;2.302;2023-04-15T13:30:26;3.38;;;2.70;;
59846;SDS011;45728;48.788;2.302;2023-04-15T13:32:52;2.28;;;1.95;;
59846;SDS011;45728;48.788;2.302;2023-04-15T13:35:19;2.67;;;1.80;;
59846;SDS011;45728;48.788;2.302;2023-04-15T13:37:45;2.90;;;1.55;;
59846;SDS011;45728;48.788;2.302;2023-04-15T13:40:12;2.70;;;2.08;;
59846;SDS011;45728;48.788;2.302;2023-04-15T13:42:38;3.90;;;2.05;;
59846;SDS011;45728;48.788;2.302;2023-04-15T13:45:04;2.47;;;1.63;;
59846;SDS011;45728;48.788;2.302;2023-04-15T13:47:30;3.28;;;1.80;;
59846;SDS011;45728;48.788;2.302;2023-04-15T13:49:57;2.90;;;2.00;;
59846;SDS011;45728;48.788;2.302;2023-04-15T13:52:23;2.22;;;1.70;;
59846;SDS011;45728;48.788;2.302;2023-04-15T13:54:49;1.80;;;1.70;;
59846;SDS011;45728;48.788;2.302;2023-04-15T13:57:15;1.98;;;1.40;;
59846;SDS011;45728;48.788;2.302;2023-04-15T13:59:41;2.75;;;1.60;;
59846;SDS011;45728;48.788;2.302;2023-04-15T14:02:08;2.85;;;1.48;;
59846;SDS011;45728;48.788;2.302;2023-04-15T14:04:34;2.10;;;1.50;;
59846;SDS011;45728;48.788;2.302;2023-04-15T14:07:01;1.70;;;1.40;;
59846;SDS011;45728;48.788;2.302;2023-04-15T14:09:27;2.10;;;1.48;;
59846;SDS011;45728;48.788;2.302;2023-04-15T14:11:54;2.60;;;1.20;;
59846;SDS011;45728;48.788;2.302;2023-04-15T14:14:20;4.25;;;1.70;;
59846;SDS011;45728;48.788;2.302;2023-04-15T14:16:47;1.40;;;1.30;;
59846;SDS011;45728;48.788;2.302;2023-04-15T14:19:13;2.80;;;1.60;;
59846;SDS011;45728;48.788;2.302;2023-04-15T14:21:39;2.13;;;1.45;;
59846;SDS011;45728;48.788;2.302;2023-04-15T14:24:05;2.65;;;1.60;;
59846;SDS011;45728;48.788;2.302;2023-04-15T14:26:31;3.08;;;1.60;;
59846;SDS011;45728;48.788;2.302;2023-04-15T14:28:58;2.65;;;1.40;;
59846;SDS011;45728;48.788;2.302;2023-04-15T14:31:24;1.88;;;1.60;;
59846;SDS011;45728;48.788;2.302;2023-04-15T14:33:50;1.70;;;1.58;;
59846;SDS011;45728;48.788;2.302;2023-04-15T14:36:16;2.85;;;1.50;;
59846;SDS011;45728;48.788;2.302;2023-04-15T14:38:42;2.20;;;1.77;;
59846;SDS011;45728;48.788;2.302;2023-04-15T14:41:08;3.92;;;1.95;;
59846;SDS011;45728;48.788;2.302;2023-04-15T14:43:34;1.83;;;1.73;;
59846;SDS011;45728;48.788;2.302;2023-04-15T14:46:01;2.45;;;1.92;;
59846;SDS011;45728;48.788;2.302;2023-04-15T14:48:27;2.72;;;1.80;;
59846;SDS011;45728;48.788;2.302;2023-04-15T14:50:53;2.72;;;2.13;;
59846;SDS011;45728;48.788;2.302;2023-04-15T14:53:19;1.80;;;1.70;;
59846;SDS011;45728;48.788;2.302;2023-04-15T14:55:45;3.35;;;2.05;;
59846;SDS011;45728;48.788;2.302;2023-04-15T14:58:11;2.58;;;2.17;;
59846;SDS011;45728;48.788;2.302;2023-04-15T15:00:38;3.47;;;1.83;;
59846;SDS011;45728;48.788;2.302;2023-04-15T15:03:07;4.55;;;2.30;;